DW8453 Bekkjarvik NO current weather conditions

sailwx.info

Wind from 161 at 24 knots gusting 20

Air temperature 7.2° C
Dewpoint 6.2° C

Last reported at 2015-May-24 08:48 UTC.
Time now 2015-May-24 09:24 UTC

Location: N 60°01' E 005°12'.
View on Google Maps.

See reports from other nearby stations

  
Tides and Currents Weather Stations Pressure Air Temp Water Temp Dewpoint Dewpoint Depression Visibility Wind Speed Wind Dir Waves Ship Positions
date/time (UTC)wind fromknots sea level pressurealtimeterstation pressurevisibilityair tempwater tempwave heightnotes
2015-May-24 08:48 161 24 gusting 20 7.2
2015-May-24 08:43 156 22 gusting 20 7.2
2015-May-24 08:38 161 20 gusting 19 7.2
2015-May-24 08:33 149 22 gusting 19 7.2
2015-May-24 08:28 151 16 gusting 18 7.2
2015-May-24 08:23 151 19 gusting 20 7.2
2015-May-24 08:18 145 20 gusting 18 7.2
2015-May-24 08:13 170 21 gusting 19 7.2
2015-May-24 08:08 133 21 gusting 20 7.2
2015-May-24 08:03 160 18 gusting 18 7.2
2015-May-24 07:58 146 21 gusting 19 7.2
2015-May-24 07:53 166 18 gusting 18 7.2
2015-May-24 07:48 141 15 gusting 17 7.2
2015-May-24 07:43 163 17 gusting 17 7.2
2015-May-24 07:38 151 15 gusting 18 7.2
2015-May-24 07:33 135 19 gusting 18 7.2
2015-May-24 07:28 143 20 gusting 19 7.2
2015-May-24 07:23 169 19 gusting 15 7.2
2015-May-24 07:18 136 15 gusting 13 6.7
2015-May-24 07:13 145 20 gusting 18 7.2
2015-May-24 07:08 154 19 gusting 19 7.2
2015-May-24 07:03 153 17 gusting 18 7.2
2015-May-24 06:58 155 15 gusting 13 7.2
2015-May-24 06:53 162 14 gusting 13 7.2
2015-May-24 06:48 153 18 gusting 17 7.2
2015-May-24 06:43 152 19 gusting 18 6.7
2015-May-24 06:38 151 17 gusting 18 6.7
2015-May-24 06:33 156 20 gusting 19 6.7
2015-May-24 06:28 147 21 gusting 18 6.7
2015-May-24 06:23 150 19 gusting 18 6.7
2015-May-24 06:18 114 14 gusting 14 6.7
2015-May-24 06:13 145 15 gusting 14 6.7
2015-May-24 06:08 133 19 gusting 18 6.7
2015-May-24 06:03 142 21 gusting 20 6.7
2015-May-24 05:58 141 17 gusting 17 6.7
2015-May-24 05:53 141 17 gusting 18 6.7
2015-May-24 05:48 146 13 gusting 13 6.7
2015-May-24 05:43 159 14 gusting 13 6.7
2015-May-24 05:38 174 13 gusting 13 6.7
2015-May-24 05:33 159 13 gusting 15 6.7
2015-May-24 05:28 142 14 gusting 13 6.7
2015-May-24 05:23 182 19 gusting 18 6.7
2015-May-24 05:18 141 16 gusting 15 6.7
2015-May-24 05:13 148 18 gusting 17 6.7
2015-May-24 05:08 175 17 gusting 17 6.7
2015-May-24 05:03 138 17 gusting 18 6.7
2015-May-24 04:58 162 14 gusting 13 6.1
2015-May-24 04:53 162 15 gusting 13 6.1
2015-May-24 04:48 133 19 gusting 17 6.1
2015-May-24 04:43 165 20 gusting 19 6.1
2015-May-24 04:38 150 19 gusting 18 6.1
2015-May-24 04:33 145 18 gusting 17 6.1
2015-May-24 04:28 145 16 gusting 15 6.1
2015-May-24 04:23 147 13 gusting 14 6.1
2015-May-24 04:18 160 15 gusting 13 6.1
2015-May-24 04:13 153 13 gusting 14 6.1
2015-May-24 04:08 149 15 gusting 15 6.1
2015-May-24 04:03 165 14 gusting 14 6.1
2015-May-24 03:58 183 17 gusting 15 6.1
2015-May-24 03:53 144 18 gusting 18 6.1
2015-May-24 03:48 175 17 gusting 14 6.1
2015-May-24 03:43 148 14 gusting 15 6.1
2015-May-24 03:38 155 18 gusting 15 6.1
2015-May-24 03:33 130 14 gusting 14 6.1
2015-May-24 03:28 152 16 gusting 15 6.1
2015-May-24 03:23 179 18 gusting 17 6.1
2015-May-24 03:18 137 15 gusting 15 6.1
2015-May-24 03:13 153 15 gusting 19 6.1
2015-May-24 03:08 156 18 gusting 15 6.1
2015-May-24 03:03 170 18 gusting 17 6.1
2015-May-24 02:58 143 15 gusting 18 6.1
2015-May-24 02:53 169 16 gusting 15 6.1
2015-May-24 02:48 159 14 gusting 13 6.1
2015-May-24 02:43 146 15 gusting 15 6.1
2015-May-24 02:38 156 11 gusting 13 6.1
2015-May-24 02:33 142 15 gusting 14 5.6
2015-May-24 02:28 164 14 gusting 13 5.6
2015-May-24 02:23 168 13 gusting 14 5.6
2015-May-24 02:18 177 15 gusting 13 5.6
2015-May-24 02:13 182 14 gusting 13 5.6
2015-May-24 02:08 152 12 gusting 12 5.6
2015-May-24 02:03 119 13 gusting 12 5.6
2015-May-24 01:58 165 15 gusting 15 5.6
2015-May-24 01:53 154 12 gusting 13 5.6
2015-May-24 01:48 172 12 gusting 13 5.6
2015-May-24 01:43 162 14 gusting 13 5.6
2015-May-24 01:38 166 11 gusting 12 5.0
2015-May-24 01:33 172 12 gusting 11 5.0
2015-May-24 01:28 159 11 gusting 12 5.0
2015-May-24 01:23 158 10 gusting 8 5.0
2015-May-24 01:18 163 10 gusting 11 5.0
2015-May-24 01:13 142 10 gusting 10 5.0
2015-May-24 01:08 162 7 gusting 8 5.0
2015-May-24 01:03 155 6 gusting 8 5.0
2015-May-24 00:58 160 8 gusting 8 4.4
2015-May-24 00:53 157 6 gusting 6 4.4
2015-May-24 00:48 166 6 gusting 6 4.4
2015-May-24 00:43 169 7 gusting 7 4.4
2015-May-24 00:38 189 6 gusting 7 4.4
2015-May-24 00:33 184 7 gusting 8 4.4
2015-May-24 00:28 170 7 gusting 8 4.4
2015-May-24 00:23 172 10 gusting 8 4.4
2015-May-24 00:18 155 4 gusting 6 4.4
2015-May-24 00:13 168 6 gusting 6 4.4
2015-May-24 00:08 177 5 gusting 6 4.4
2015-May-24 00:03 178 6 gusting 6 4.4
2015-May-23 23:58 163 5 gusting 6 4.4
2015-May-23 23:53 176 6 gusting 6 4.4
2015-May-23 23:48 177 7 gusting 6 4.4
2015-May-23 23:43 187 6 gusting 6 4.4
2015-May-23 23:38 179 5 gusting 6 4.4
2015-May-23 23:33 169 6 gusting 6 4.4
2015-May-23 23:28 184 7 gusting 6 4.4
2015-May-23 23:23 173 6 gusting 6 4.4
2015-May-23 23:18 187 6 gusting 6 4.4
2015-May-23 23:13 172 6 gusting 6 4.4
2015-May-23 23:08 182 6 gusting 6 4.4
2015-May-23 23:03 167 7 gusting 6 4.4
2015-May-23 22:58 166 5 gusting 5 3.9
2015-May-23 22:53 177 5 gusting 6 3.9
2015-May-23 22:48 180 6 gusting 6 4.4
2015-May-23 22:43 183 6 gusting 6 4.4
2015-May-23 22:38 181 7 gusting 6 4.4
2015-May-23 22:33 182 7 gusting 6 4.4
2015-May-23 22:28 199 7 gusting 6 4.4
2015-May-23 22:23 192 8 gusting 6 4.4
2015-May-23 22:18 199 8 gusting 6 4.4
2015-May-23 22:13 186 6 gusting 6 4.4
2015-May-23 22:08 195 8 gusting 6 4.4
2015-May-23 22:03 190 7 gusting 6 4.4
2015-May-23 21:58 202 7 gusting 6 4.4
2015-May-23 21:53 192 6 gusting 6 4.4
2015-May-23 21:48 186 7 gusting 6 4.4
2015-May-23 21:43 199 6 gusting 6 5.0
2015-May-23 21:38 200 5 gusting 6 5.0
2015-May-23 21:33 194 6 gusting 5 5.0
2015-May-23 21:28 194 5 gusting 5 5.0
2015-May-23 21:23 184 5 gusting 5 5.0
2015-May-23 21:18 209 2 gusting 2 5.0
2015-May-23 21:13 233 0 gusting 1 5.0
2015-May-23 21:08 224 1 gusting 1 5.6
2015-May-23 21:03 258 1 gusting 1 5.6
2015-May-23 20:58 245 0 gusting 0 5.6
2015-May-23 20:53 225 1 gusting 1 5.6
2015-May-23 20:48 262 0 gusting 2 5.6
2015-May-23 20:43 218 1 gusting 1 6.1
2015-May-23 20:38 283 0 gusting 0 6.1
2015-May-23 20:33 223 0 gusting 1 6.7
2015-May-23 20:28 235 0 gusting 0 6.7
2015-May-23 20:23 261 0 gusting 1 6.7
2015-May-23 20:18 245 0 gusting 0 6.7
2015-May-23 20:13 278 0 gusting 1 7.2
2015-May-23 20:08 291 0 gusting 0 7.2
2015-May-23 20:03 271 0 gusting 1 7.8
2015-May-23 19:58 245 7.8
2015-May-23 19:53 236 0 gusting 0 7.8
2015-May-23 19:48 235 7.8
2015-May-23 19:43 300 0 gusting 0 7.8
2015-May-23 19:38 293 0 gusting 0 7.8
2015-May-23 19:33 312 7.8
2015-May-23 19:28 328 7.8
2015-May-23 19:23 279 0 gusting 0 7.8
2015-May-23 19:18 334 1 gusting 1 8.3
2015-May-23 19:13 337 1 gusting 1 8.3
2015-May-23 19:08 323 0 gusting 1 8.3
2015-May-23 19:03 319 0 gusting 1 8.3
2015-May-23 18:58 329 2 gusting 2 8.3
2015-May-23 18:53 330 2 gusting 2 8.9
2015-May-23 18:48 309 1 gusting 1 8.9
2015-May-23 18:43 334 1 gusting 2 9.4
2015-May-23 18:38 351 2 gusting 4 9.4
2015-May-23 18:33 343 1 gusting 2 10.0
2015-May-23 18:28 277 0 gusting 2 9.4
2015-May-23 18:23 287 2 gusting 2 9.4
2015-May-23 18:18 291 1 gusting 2 8.9
2015-May-23 18:13 285 0 gusting 2 8.9
2015-May-23 18:08 328 0 gusting 2 8.9
2015-May-23 18:03 314 2 gusting 4 8.9
2015-May-23 17:58 331 3 gusting 2 8.9
2015-May-23 17:53 324 5 gusting 5 8.9
2015-May-23 17:48 325 2 gusting 2 8.9
2015-May-23 17:43 289 1 gusting 2 8.3
2015-May-23 17:38 315 3 gusting 4 8.3
2015-May-23 17:33 294 2 gusting 4 8.3
2015-May-23 17:28 293 3 gusting 5 8.3
2015-May-23 17:23 289 2 gusting 5 8.3
2015-May-23 17:18 277 3 gusting 5 8.3
2015-May-23 17:13 311 4 gusting 5 8.3
2015-May-23 17:08 331 4 gusting 6 8.3
2015-May-23 17:03 261 2 gusting 4 8.3
2015-May-23 16:58 294 5 gusting 5 8.3
2015-May-23 16:53 282 4 gusting 6 8.3
2015-May-23 16:48 301 4 gusting 5 8.3
2015-May-23 16:43 271 4 gusting 6 8.3
2015-May-23 16:38 310 4 gusting 6 8.9
2015-May-23 16:33 315 5 gusting 6 8.9
2015-May-23 16:28 263 6 gusting 7 9.4
2015-May-23 16:23 289 5 gusting 6 9.4
2015-May-23 16:13 320 4 gusting 6 9.4
2015-May-23 16:08 295 5 gusting 6 9.4
2015-May-23 16:03 353 3 gusting 5 9.4
2015-May-23 15:58 280 3 gusting 6 9.4
2015-May-23 15:53 305 2 gusting 6 8.9
2015-May-23 15:48 318 5 gusting 6 8.9
2015-May-23 15:43 332 6 gusting 6 9.4
2015-May-23 15:38 292 6 gusting 6 9.4
2015-May-23 15:33 284 4 gusting 6 9.4
2015-May-23 15:28 283 1 gusting 5 9.4
2015-May-23 15:23 324 7 gusting 6 9.4
2015-May-23 15:18 299 4 gusting 6 9.4
2015-May-23 15:13 338 2 gusting 6 8.9
2015-May-23 15:08 350 6 gusting 10 8.9
2015-May-23 15:03 357 5 gusting 6 8.9
2015-May-23 14:58 326 6 gusting 6 8.9
2015-May-23 14:53 321 4 gusting 8 8.9
2015-May-23 14:43 298 4 gusting 5 8.9
2015-May-23 14:38 268 7 gusting 8 8.9
2015-May-23 14:33 299 8 gusting 12 8.3
2015-May-23 14:28 261 11 gusting 11 8.9
2015-May-23 14:23 281 11 gusting 10 8.9
2015-May-23 14:18 278 10 gusting 13 8.9
2015-May-23 14:13 301 12 gusting 12 8.9
2015-May-23 14:08 288 12 gusting 13 9.4
2015-May-23 14:03 290 7 gusting 12 9.4
2015-May-23 13:58 306 8 gusting 7 9.4
2015-May-23 13:53 336 7 gusting 6 9.4
2015-May-23 13:43 330 5 gusting 6 10.0
2015-May-23 13:38 268 4 gusting 6 9.4
2015-May-23 13:28 346 9 gusting 8 9.4
2015-May-23 13:23 300 8 gusting 8 9.4
2015-May-23 13:18 289 6 gusting 6 9.4
2015-May-23 13:13 300 7 gusting 6 9.4
2015-May-23 13:08 325 5 gusting 6 9.4
2015-May-23 13:03 320 6 gusting 7 9.4
2015-May-23 12:58 324 6 gusting 8 9.4
2015-May-23 12:53 307 6 gusting 7 9.4
2015-May-23 12:48 293 7 gusting 10 10.0
2015-May-23 12:43 351 6 gusting 8 10.0
2015-May-23 12:38 329 5 gusting 6 9.4
2015-May-23 12:33 303 8 gusting 8 9.4
2015-May-23 12:28 298 11 gusting 11 9.4
2015-May-23 12:23 334 7 gusting 10 9.4
2015-May-23 12:18 288 6 gusting 11 9.4
2015-May-23 12:13 311 6 gusting 6 9.4
2015-May-23 12:08 300 8 gusting 8 9.4
2015-May-23 12:03 300 7 gusting 11 9.4
2015-May-23 11:58 295 6 gusting 7 9.4
2015-May-23 11:53 276 9 gusting 8 9.4
2015-May-23 11:48 327 7 gusting 7 9.4
2015-May-23 11:43 282 6 gusting 10 9.4
2015-May-23 11:33 312 10 gusting 11 9.4
2015-May-23 11:28 284 6 gusting 10 9.4
2015-May-23 11:23 300 6 gusting 11 9.4
2015-May-23 11:13 255 11 gusting 11 8.9
2015-May-23 11:08 354 10 gusting 11 8.9
2015-May-23 11:03 297 6 gusting 8 8.9
2015-May-23 10:58 315 8 gusting 10 8.9
2015-May-23 10:53 349 10 gusting 10 8.9
2015-May-23 10:48 323 10 gusting 10 8.9
2015-May-23 10:43 282 13 gusting 11 8.9
2015-May-23 10:38 332 10 gusting 12 8.9
2015-May-23 10:28 331 8 gusting 11 8.3
2015-May-23 10:23 318 13 gusting 12 8.9
2015-May-23 10:18 312 12 gusting 13 8.9
2015-May-23 10:13 338 13 gusting 12 8.3
2015-May-23 10:08 306 13 gusting 12 8.3
2015-May-23 10:03 325 14 gusting 15 8.3
2015-May-23 09:58 351 14 gusting 13 8.3
2015-May-23 09:53 339 15 gusting 15 8.3
2015-May-23 09:38 302 9 gusting 13 8.3
2015-May-23 09:33 312 13 gusting 11 7.8
2015-May-23 09:28 343 13 gusting 13 8.3
2015-May-23 09:23 322 13 gusting 12 8.3
2015-May-23 09:18 317 13 gusting 13 8.3
2015-May-23 09:13 309 8 gusting 14 8.3
2015-May-23 09:08 347 15 gusting 14 8.3
2015-May-23 09:03 343 13 gusting 13 8.3
2015-May-23 08:58 315 13 gusting 12 8.3
2015-May-23 08:53 327 14 gusting 13 8.3
2015-May-23 08:48 313 10 gusting 13 8.3
2015-May-23 08:43 312 12 gusting 14 8.3
2015-May-23 08:38 335 15 gusting 15 8.3
2015-May-23 08:28 314 14 gusting 14 7.8
2015-May-23 08:18 314 14 gusting 14 7.8
2015-May-23 08:13 340 13 gusting 15 7.8
2015-May-23 08:08 321 16 gusting 13 7.8
2015-May-23 08:03 312 13 gusting 14 7.8
2015-May-23 07:58 326 13 gusting 13 7.8
2015-May-23 07:53 335 8 gusting 13 7.8
2015-May-23 07:48 325 12 gusting 13 7.2
2015-May-23 07:43 273 11 gusting 11 7.2
2015-May-23 07:38 326 15 gusting 17 7.8
2015-May-23 07:33 294 16 gusting 15 7.8
2015-May-23 07:28 323 17 gusting 18 7.8
2015-May-23 07:23 317 12 gusting 13 8.3
2015-May-23 07:18 349 18 gusting 15 7.8
2015-May-23 07:13 304 18 gusting 14 7.8
2015-May-23 07:08 319 18 gusting 15 7.8
2015-May-23 07:03 312 6 gusting 10 7.8
2015-May-23 06:58 319 11 gusting 12 7.8
2015-May-23 06:53 349 13 gusting 17 7.8
2015-May-23 06:48 294 14 gusting 15 7.8
2015-May-23 06:43 308 12 gusting 11 7.8
2015-May-23 06:38 318 12 gusting 13 7.8
2015-May-23 06:33 297 12 gusting 13 7.8
2015-May-23 06:28 298 9 gusting 11 7.8
2015-May-23 06:23 321 12 gusting 13 7.8
2015-May-23 06:18 302 16 gusting 18 7.8
2015-May-23 06:13 325 20 gusting 18 7.8
2015-May-23 06:08 338 11 gusting 14 7.8
2015-May-23 06:03 322 11 gusting 14 7.8
2015-May-23 05:58 302 9 gusting 13 7.8
2015-May-23 05:53 314 10 gusting 11 7.2
2015-May-23 05:48 107 13 gusting 13 7.2
2015-May-23 05:43 322 11 gusting 11 6.7
2015-May-23 05:38 328 11 gusting 13 6.7
2015-May-23 05:33 322 15 gusting 15 6.7
2015-May-23 05:28 314 15 gusting 13 7.2
2015-May-23 05:23 315 13 gusting 13 7.2
2015-May-23 05:18 313 8 gusting 12 7.2
2015-May-23 05:13 324 12 gusting 11 7.2
2015-May-23 05:08 311 10 gusting 13 7.2
2015-May-23 05:03 335 13 gusting 13 7.2
2015-May-23 04:58 341 12 gusting 15 6.7
2015-May-23 04:53 345 8 gusting 10 6.7
2015-May-23 04:48 347 8 gusting 8 6.7
2015-May-23 04:43 326 6 gusting 8 6.7
2015-May-23 04:38 338 8 gusting 10 6.7
2015-May-23 04:33 332 15 gusting 14 6.7
2015-May-23 04:28 323 17 gusting 15 6.7
2015-May-23 04:23 330 20 gusting 18 7.2
2015-May-23 04:18 230 11 gusting 12 7.2
2015-May-23 04:13 313 11 gusting 13 7.2
2015-May-23 04:08 7.2
2015-May-23 04:03 306 12 gusting 15 7.2
2015-May-23 03:58 318 16 gusting 18 7.2
2015-May-23 03:53 330 14 gusting 17 7.2
2015-May-23 03:48 321 14 gusting 17 7.2
2015-May-23 03:43 7.2
2015-May-23 03:38 342 19 gusting 19 7.2
2015-May-23 03:33 327 17 gusting 18 7.2
2015-May-23 03:28 321 16 gusting 15 7.2
2015-May-23 03:23 330 12 gusting 14 6.7
2015-May-23 03:18 297 12 gusting 14 6.7
2015-May-23 03:13 298 15 gusting 14 6.7
2015-May-23 03:08 322 15 gusting 13 6.7
2015-May-23 03:03 318 13 gusting 15 6.7
2015-May-23 02:58 330 19 gusting 17 6.7
2015-May-23 02:53 311 13 gusting 13 7.2
2015-May-23 02:48 318 18 gusting 18 7.2
2015-May-23 02:43 314 17 gusting 17 7.2
2015-May-23 02:38 321 14 gusting 17 7.2
2015-May-23 02:33 352 19 gusting 19 6.7
2015-May-23 02:28 303 16 gusting 13 7.2
2015-May-23 02:23 333 13 gusting 13 6.7
2015-May-23 02:18 312 18 gusting 18 7.2
2015-May-23 02:13 325 18 gusting 19 7.2
2015-May-23 02:08 323 15 gusting 15 7.2
2015-May-23 02:03 289 13 gusting 15 7.2
2015-May-23 01:58 318 12 gusting 13 7.2
2015-May-23 01:53 340 13 gusting 15 7.2
2015-May-23 01:48 316 19 gusting 18 7.2
2015-May-23 01:43 315 13 gusting 13 7.2
2015-May-23 01:38 314 10 gusting 11 7.2
2015-May-23 01:33 308 7 gusting 10 7.2
2015-May-23 01:28 312 12 gusting 13 7.2
2015-May-23 01:23 322 15 gusting 15 7.2
2015-May-23 01:18 274 14 gusting 17 7.2
2015-May-23 01:13 336 12 gusting 15 7.8
2015-May-23 01:08 306 15 gusting 15 7.8
2015-May-23 01:03 335 13 gusting 15 7.8
2015-May-23 00:58 332 19 gusting 19 7.8
2015-May-23 00:53 295 14 gusting 13 7.8
2015-May-23 00:48 304 9 gusting 12 7.8
2015-May-23 00:43 302 11 gusting 14 7.8
2015-May-23 00:38 313 15 gusting 18 7.8
2015-May-23 00:33 308 12 gusting 13 7.8
2015-May-23 00:28 285 12 gusting 13 7.8
2015-May-23 00:23 304 14 gusting 18 7.8
2015-May-23 00:18 318 19 gusting 18 7.8
2015-May-23 00:13 315 14 gusting 15 7.8
2015-May-23 00:08 291 14 gusting 17 7.8
2015-May-23 00:03 284 14 gusting 15 7.8
2015-May-22 23:58 308 13 gusting 15 7.8
2015-May-22 23:53 291 14 gusting 13 7.8
2015-May-22 23:48 309 15 gusting 15 7.8
2015-May-22 23:43 297 17 gusting 17 7.8
2015-May-22 23:38 312 16 gusting 15 7.8
2015-May-22 23:33 263 15 gusting 15 7.8
2015-May-22 23:28 306 14 gusting 15 7.8
2015-May-22 23:23 261 13 gusting 14 7.8
2015-May-22 23:18 283 11 gusting 13 7.8
2015-May-22 23:13 296 13 gusting 13 7.8
2015-May-22 23:08 277 14 gusting 18 7.8
2015-May-22 23:03 304 18 gusting 17 7.8
2015-May-22 22:58 255 13 gusting 18 7.8
2015-May-22 22:53 308 15 gusting 17 7.8
2015-May-22 22:48 260 14 gusting 13 7.8
2015-May-22 22:43 278 13 gusting 14 7.8
2015-May-22 22:38 279 15 gusting 15 7.8
2015-May-22 22:33 274 13 gusting 15 7.8
2015-May-22 22:28 261 12 gusting 13 7.8
2015-May-22 17:58 265 13 gusting 12 7.2
2015-May-22 17:53 268 10 gusting 13 7.2
2015-May-22 17:48 285 7 gusting 7 7.2
2015-May-22 17:43 273 7 gusting 7 6.7
2015-May-22 17:38 273 11 gusting 11 6.7
2015-May-22 17:33 291 13 gusting 13 6.7
2015-May-22 17:28 293 14 gusting 15 6.7
2015-May-22 17:23 286 3 gusting 1 8.3